sensor_id;sensor_type;location;lat;lon;timestamp;P1;durP1;ratioP1;P2;durP2;ratioP2
11911;SDS011;6016;41.928;25.556;2023-04-03T00:00:40;5.15;;;2.30;;
11911;SDS011;6016;41.928;25.556;2023-04-03T00:03:07;4.38;;;2.40;;
11911;SDS011;6016;41.928;25.556;2023-04-03T00:05:34;8.45;;;2.60;;
11911;SDS011;6016;41.928;25.556;2023-04-03T00:08:02;3.50;;;2.17;;
11911;SDS011;6016;41.928;25.556;2023-04-03T00:10:29;3.00;;;1.88;;
11911;SDS011;6016;41.928;25.556;2023-04-03T00:12:56;4.35;;;2.35;;
11911;SDS011;6016;41.928;25.556;2023-04-03T00:15:23;5.68;;;2.55;;
11911;SDS011;6016;41.928;25.556;2023-04-03T00:17:50;4.90;;;2.65;;
11911;SDS011;6016;41.928;25.556;2023-04-03T00:20:17;5.10;;;2.72;;
11911;SDS011;6016;41.928;25.556;2023-04-03T00:22:44;6.40;;;2.60;;
11911;SDS011;6016;41.928;25.556;2023-04-03T00:25:12;8.20;;;2.92;;
11911;SDS011;6016;41.928;25.556;2023-04-03T00:27:39;8.50;;;2.90;;
11911;SDS011;6016;41.928;25.556;2023-04-03T00:30:07;6.05;;;3.60;;
11911;SDS011;6016;41.928;25.556;2023-04-03T00:32:36;7.07;;;3.03;;
11911;SDS011;6016;41.928;25.556;2023-04-03T00:35:03;8.38;;;2.90;;
11911;SDS011;6016;41.928;25.556;2023-04-03T00:37:31;6.35;;;2.85;;
11911;SDS011;6016;41.928;25.556;2023-04-03T00:39:58;5.25;;;2.45;;
11911;SDS011;6016;41.928;25.556;2023-04-03T00:42:26;8.82;;;2.35;;
11911;SDS011;6016;41.928;25.556;2023-04-03T00:45:22;5.13;;;2.13;;
11911;SDS011;6016;41.928;25.556;2023-04-03T00:47:51;5.80;;;2.08;;
11911;SDS011;6016;41.928;25.556;2023-04-03T00:50:19;3.22;;;2.00;;
11911;SDS011;6016;41.928;25.556;2023-04-03T00:52:46;4.40;;;2.00;;
11911;SDS011;6016;41.928;25.556;2023-04-03T00:55:14;2.90;;;2.03;;
11911;SDS011;6016;41.928;25.556;2023-04-03T00:57:43;4.93;;;2.70;;
11911;SDS011;6016;41.928;25.556;2023-04-03T01:00:12;4.82;;;2.50;;
11911;SDS011;6016;41.928;25.556;2023-04-03T01:02:42;3.83;;;2.20;;
11911;SDS011;6016;41.928;25.556;2023-04-03T01:05:10;4.75;;;2.63;;
11911;SDS011;6016;41.928;25.556;2023-04-03T01:07:37;4.70;;;2.25;;
11911;SDS011;6016;41.928;25.556;2023-04-03T01:10:06;6.15;;;2.47;;
11911;SDS011;6016;41.928;25.556;2023-04-03T01:12:36;5.20;;;2.30;;
11911;SDS011;6016;41.928;25.556;2023-04-03T01:15:06;5.38;;;2.53;;
11911;SDS011;6016;41.928;25.556;2023-04-03T01:17:35;3.38;;;2.10;;
11911;SDS011;6016;41.928;25.556;2023-04-03T01:23:25;5.95;;;2.30;;
11911;SDS011;6016;41.928;25.556;2023-04-03T01:25:58;5.00;;;2.33;;
11911;SDS011;6016;41.928;25.556;2023-04-03T01:28:26;4.82;;;2.47;;
11911;SDS011;6016;41.928;25.556;2023-04-03T01:30:59;3.15;;;2.40;;
11911;SDS011;6016;41.928;25.556;2023-04-03T01:33:34;3.95;;;2.10;;
11911;SDS011;6016;41.928;25.556;2023-04-03T01:36:01;4.07;;;2.33;;
11911;SDS011;6016;41.928;25.556;2023-04-03T01:38:29;4.63;;;2.00;;
11911;SDS011;6016;41.928;25.556;2023-04-03T01:40:56;5.38;;;2.40;;
11911;SDS011;6016;41.928;25.556;2023-04-03T01:43:23;5.10;;;2.30;;
11911;SDS011;6016;41.928;25.556;2023-04-03T01:45:50;4.68;;;2.28;;
11911;SDS011;6016;41.928;25.556;2023-04-03T01:48:19;4.80;;;2.42;;
11911;SDS011;6016;41.928;25.556;2023-04-03T01:50:48;4.72;;;2.70;;
11911;SDS011;6016;41.928;25.556;2023-04-03T01:53:14;5.30;;;2.50;;
11911;SDS011;6016;41.928;25.556;2023-04-03T01:55:41;5.78;;;2.55;;
11911;SDS011;6016;41.928;25.556;2023-04-03T01:58:08;4.32;;;2.50;;
11911;SDS011;6016;41.928;25.556;2023-04-03T02:00:35;4.28;;;2.15;;
11911;SDS011;6016;41.928;25.556;2023-04-03T02:03:02;3.80;;;2.10;;
11911;SDS011;6016;41.928;25.556;2023-04-03T02:05:29;4.43;;;2.40;;
11911;SDS011;6016;41.928;25.556;2023-04-03T02:07:57;5.78;;;2.40;;
11911;SDS011;6016;41.928;25.556;2023-04-03T02:10:25;4.55;;;2.42;;
11911;SDS011;6016;41.928;25.556;2023-04-03T02:12:51;6.20;;;2.70;;
11911;SDS011;6016;41.928;25.556;2023-04-03T02:15:18;8.43;;;2.63;;
11911;SDS011;6016;41.928;25.556;2023-04-03T02:17:45;5.90;;;2.55;;
11911;SDS011;6016;41.928;25.556;2023-04-03T02:20:12;4.50;;;2.45;;
11911;SDS011;6016;41.928;25.556;2023-04-03T02:22:39;7.30;;;2.80;;
11911;SDS011;6016;41.928;25.556;2023-04-03T02:25:07;3.97;;;2.28;;
11911;SDS011;6016;41.928;25.556;2023-04-03T02:27:35;4.45;;;2.40;;
11911;SDS011;6016;41.928;25.556;2023-04-03T02:30:02;5.13;;;2.33;;
11911;SDS011;6016;41.928;25.556;2023-04-03T02:32:29;3.58;;;2.35;;
11911;SDS011;6016;41.928;25.556;2023-04-03T02:34:56;5.95;;;2.58;;
11911;SDS011;6016;41.928;25.556;2023-04-03T02:37:23;4.60;;;2.97;;
11911;SDS011;6016;41.928;25.556;2023-04-03T02:39:50;6.70;;;3.15;;
11911;SDS011;6016;41.928;25.556;2023-04-03T02:42:18;7.68;;;2.90;;
11911;SDS011;6016;41.928;25.556;2023-04-03T02:44:44;7.25;;;2.92;;
11911;SDS011;6016;41.928;25.556;2023-04-03T02:47:11;7.10;;;3.00;;
11911;SDS011;6016;41.928;25.556;2023-04-03T02:49:38;6.70;;;3.05;;
11911;SDS011;6016;41.928;25.556;2023-04-03T02:52:05;5.80;;;2.92;;
11911;SDS011;6016;41.928;25.556;2023-04-03T02:54:32;6.35;;;2.75;;
11911;SDS011;6016;41.928;25.556;2023-04-03T02:56:58;8.35;;;2.83;;
11911;SDS011;6016;41.928;25.556;2023-04-03T02:59:27;3.60;;;2.65;;
11911;SDS011;6016;41.928;25.556;2023-04-03T03:01:54;4.97;;;2.90;;
11911;SDS011;6016;41.928;25.556;2023-04-03T03:04:20;5.65;;;3.45;;
11911;SDS011;6016;41.928;25.556;2023-04-03T03:06:48;5.10;;;2.83;;
11911;SDS011;6016;41.928;25.556;2023-04-03T03:09:15;6.57;;;3.20;;
11911;SDS011;6016;41.928;25.556;2023-04-03T03:11:42;4.60;;;3.13;;
11911;SDS011;6016;41.928;25.556;2023-04-03T03:14:09;5.28;;;2.88;;
11911;SDS011;6016;41.928;25.556;2023-04-03T03:16:37;4.07;;;2.65;;
11911;SDS011;6016;41.928;25.556;2023-04-03T03:19:04;3.92;;;2.80;;
11911;SDS011;6016;41.928;25.556;2023-04-03T03:21:31;5.43;;;2.90;;
11911;SDS011;6016;41.928;25.556;2023-04-03T03:23:58;4.80;;;2.70;;
11911;SDS011;6016;41.928;25.556;2023-04-03T03:26:25;4.35;;;2.80;;
11911;SDS011;6016;41.928;25.556;2023-04-03T03:28:52;5.10;;;3.20;;
11911;SDS011;6016;41.928;25.556;2023-04-03T03:31:19;4.80;;;2.75;;
11911;SDS011;6016;41.928;25.556;2023-04-03T03:33:47;5.20;;;2.90;;
11911;SDS011;6016;41.928;25.556;2023-04-03T03:36:15;5.15;;;2.90;;
11911;SDS011;6016;41.928;25.556;2023-04-03T03:38:42;6.35;;;3.20;;
11911;SDS011;6016;41.928;25.556;2023-04-03T03:41:08;4.93;;;3.17;;
11911;SDS011;6016;41.928;25.556;2023-04-03T03:43:35;7.05;;;3.40;;
11911;SDS011;6016;41.928;25.556;2023-04-03T03:46:02;5.15;;;3.30;;
11911;SDS011;6016;41.928;25.556;2023-04-03T03:48:29;6.38;;;3.60;;
11911;SDS011;6016;41.928;25.556;2023-04-03T03:50:57;6.47;;;3.67;;
11911;SDS011;6016;41.928;25.556;2023-04-03T03:53:24;10.18;;;3.95;;
11911;SDS011;6016;41.928;25.556;2023-04-03T03:55:51;6.32;;;3.55;;
11911;SDS011;6016;41.928;25.556;2023-04-03T03:58:17;5.88;;;4.05;;
11911;SDS011;6016;41.928;25.556;2023-04-03T04:00:44;7.43;;;3.67;;
11911;SDS011;6016;41.928;25.556;2023-04-03T04:03:11;8.63;;;4.10;;
11911;SDS011;6016;41.928;25.556;2023-04-03T04:05:38;10.68;;;4.63;;
11911;SDS011;6016;41.928;25.556;2023-04-03T04:08:06;8.98;;;4.50;;
11911;SDS011;6016;41.928;25.556;2023-04-03T04:10:33;14.88;;;7.03;;
11911;SDS011;6016;41.928;25.556;2023-04-03T04:13:00;10.18;;;5.43;;
11911;SDS011;6016;41.928;25.556;2023-04-03T04:15:27;8.35;;;4.55;;
11911;SDS011;6016;41.928;25.556;2023-04-03T04:17:54;7.65;;;4.10;;
11911;SDS011;6016;41.928;25.556;2023-04-03T04:20:22;6.88;;;4.28;;
11911;SDS011;6016;41.928;25.556;2023-04-03T04:22:49;10.20;;;5.10;;
11911;SDS011;6016;41.928;25.556;2023-04-03T04:25:17;8.77;;;4.97;;
11911;SDS011;6016;41.928;25.556;2023-04-03T04:27:44;7.72;;;5.30;;
11911;SDS011;6016;41.928;25.556;2023-04-03T04:30:11;8.75;;;4.82;;
11911;SDS011;6016;41.928;25.556;2023-04-03T04:32:38;11.82;;;5.10;;
11911;SDS011;6016;41.928;25.556;2023-04-03T04:35:05;11.18;;;5.63;;
11911;SDS011;6016;41.928;25.556;2023-04-03T04:37:33;8.55;;;5.15;;
11911;SDS011;6016;41.928;25.556;2023-04-03T04:40:00;8.98;;;4.97;;
11911;SDS011;6016;41.928;25.556;2023-04-03T04:42:28;8.80;;;4.40;;
11911;SDS011;6016;41.928;25.556;2023-04-03T04:44:56;8.43;;;3.67;;
11911;SDS011;6016;41.928;25.556;2023-04-03T04:47:22;8.57;;;3.45;;
11911;SDS011;6016;41.928;25.556;2023-04-03T04:49:49;6.78;;;3.80;;
11911;SDS011;6016;41.928;25.556;2023-04-03T04:52:16;12.15;;;4.15;;
11911;SDS011;6016;41.928;25.556;2023-04-03T04:54:43;9.98;;;4.47;;
11911;SDS011;6016;41.928;25.556;2023-04-03T04:57:10;10.05;;;4.10;;
11911;SDS011;6016;41.928;25.556;2023-04-03T04:59:38;17.98;;;7.85;;
11911;SDS011;6016;41.928;25.556;2023-04-03T05:02:05;17.63;;;7.65;;
11911;SDS011;6016;41.928;25.556;2023-04-03T05:04:31;8.13;;;4.80;;
11911;SDS011;6016;41.928;25.556;2023-04-03T05:06:58;7.57;;;4.10;;
11911;SDS011;6016;41.928;25.556;2023-04-03T05:09:25;7.95;;;4.38;;
11911;SDS011;6016;41.928;25.556;2023-04-03T05:11:52;7.05;;;3.22;;
11911;SDS011;6016;41.928;25.556;2023-04-03T05:14:19;9.05;;;5.72;;
11911;SDS011;6016;41.928;25.556;2023-04-03T05:16:47;19.65;;;11.20;;
11911;SDS011;6016;41.928;25.556;2023-04-03T05:19:17;10.70;;;6.00;;
11911;SDS011;6016;41.928;25.556;2023-04-03T05:21:44;8.75;;;4.53;;
11911;SDS011;6016;41.928;25.556;2023-04-03T05:24:11;7.65;;;3.78;;
11911;SDS011;6016;41.928;25.556;2023-04-03T05:26:39;4.68;;;3.30;;
11911;SDS011;6016;41.928;25.556;2023-04-03T05:29:05;5.15;;;3.25;;
11911;SDS011;6016;41.928;25.556;2023-04-03T05:31:33;6.65;;;2.67;;
11911;SDS011;6016;41.928;25.556;2023-04-03T05:34:01;4.35;;;2.60;;
11911;SDS011;6016;41.928;25.556;2023-04-03T05:36:28;6.43;;;2.67;;
11911;SDS011;6016;41.928;25.556;2023-04-03T05:38:55;6.03;;;3.05;;
11911;SDS011;6016;41.928;25.556;2023-04-03T05:41:22;4.25;;;2.80;;
11911;SDS011;6016;41.928;25.556;2023-04-03T05:43:49;4.47;;;3.13;;
11911;SDS011;6016;41.928;25.556;2023-04-03T05:46:17;4.80;;;2.80;;
11911;SDS011;6016;41.928;25.556;2023-04-03T05:48:45;4.53;;;2.80;;
11911;SDS011;6016;41.928;25.556;2023-04-03T05:51:15;9.07;;;5.45;;
11911;SDS011;6016;41.928;25.556;2023-04-03T05:53:43;7.30;;;4.72;;
11911;SDS011;6016;41.928;25.556;2023-04-03T05:56:12;8.40;;;4.32;;
11911;SDS011;6016;41.928;25.556;2023-04-03T05:58:39;7.43;;;4.43;;
11911;SDS011;6016;41.928;25.556;2023-04-03T06:01:06;10.25;;;4.90;;
11911;SDS011;6016;41.928;25.556;2023-04-03T06:03:33;23.63;;;11.38;;
11911;SDS011;6016;41.928;25.556;2023-04-03T06:06:01;33.92;;;15.20;;
11911;SDS011;6016;41.928;25.556;2023-04-03T06:08:31;26.65;;;12.82;;
11911;SDS011;6016;41.928;25.556;2023-04-03T06:10:58;15.90;;;8.30;;
11911;SDS011;6016;41.928;25.556;2023-04-03T06:13:27;19.70;;;7.85;;
11911;SDS011;6016;41.928;25.556;2023-04-03T06:15:54;13.25;;;8.05;;
11911;SDS011;6016;41.928;25.556;2023-04-03T06:18:21;16.10;;;7.75;;
11911;SDS011;6016;41.928;25.556;2023-04-03T06:20:48;16.55;;;6.90;;
11911;SDS011;6016;41.928;25.556;2023-04-03T06:23:16;15.77;;;6.95;;
11911;SDS011;6016;41.928;25.556;2023-04-03T06:25:44;12.25;;;5.35;;
11911;SDS011;6016;41.928;25.556;2023-04-03T06:28:11;10.07;;;4.50;;
11911;SDS011;6016;41.928;25.556;2023-04-03T06:30:38;13.82;;;4.55;;
11911;SDS011;6016;41.928;25.556;2023-04-03T06:33:04;9.25;;;4.68;;
11911;SDS011;6016;41.928;25.556;2023-04-03T06:35:31;9.70;;;5.10;;
11911;SDS011;6016;41.928;25.556;2023-04-03T06:38:00;11.60;;;4.75;;
11911;SDS011;6016;41.928;25.556;2023-04-03T06:40:27;10.73;;;5.32;;
11911;SDS011;6016;41.928;25.556;2023-04-03T06:42:55;10.15;;;6.20;;
11911;SDS011;6016;41.928;25.556;2023-04-03T06:45:22;14.68;;;6.38;;
11911;SDS011;6016;41.928;25.556;2023-04-03T06:47:50;15.02;;;8.15;;
11911;SDS011;6016;41.928;25.556;2023-04-03T06:50:17;17.45;;;9.32;;
11911;SDS011;6016;41.928;25.556;2023-04-03T06:52:44;22.17;;;9.93;;
11911;SDS011;6016;41.928;25.556;2023-04-03T06:55:11;29.10;;;15.63;;
11911;SDS011;6016;41.928;25.556;2023-04-03T06:57:37;17.80;;;10.23;;
11911;SDS011;6016;41.928;25.556;2023-04-03T07:00:06;19.92;;;10.18;;
11911;SDS011;6016;41.928;25.556;2023-04-03T07:02:34;12.77;;;6.93;;
11911;SDS011;6016;41.928;25.556;2023-04-03T07:05:01;8.18;;;4.05;;
11911;SDS011;6016;41.928;25.556;2023-04-03T07:07:28;8.80;;;5.32;;
11911;SDS011;6016;41.928;25.556;2023-04-03T07:09:55;8.13;;;4.53;;
11911;SDS011;6016;41.928;25.556;2023-04-03T07:12:22;12.98;;;5.35;;
11911;SDS011;6016;41.928;25.556;2023-04-03T07:14:49;8.05;;;4.47;;
11911;SDS011;6016;41.928;25.556;2023-04-03T07:17:17;6.28;;;3.95;;
11911;SDS011;6016;41.928;25.556;2023-04-03T07:19:44;7.47;;;4.38;;
11911;SDS011;6016;41.928;25.556;2023-04-03T07:22:11;7.00;;;4.10;;
11911;SDS011;6016;41.928;25.556;2023-04-03T07:24:38;6.68;;;3.90;;
11911;SDS011;6016;41.928;25.556;2023-04-03T07:27:04;11.45;;;5.18;;
11911;SDS011;6016;41.928;25.556;2023-04-03T07:29:33;8.48;;;4.50;;
11911;SDS011;6016;41.928;25.556;2023-04-03T07:32:00;9.30;;;5.30;;
11911;SDS011;6016;41.928;25.556;2023-04-03T07:34:28;13.80;;;7.57;;
11911;SDS011;6016;41.928;25.556;2023-04-03T07:36:55;11.35;;;5.75;;
11911;SDS011;6016;41.928;25.556;2023-04-03T07:39:22;10.18;;;4.25;;
11911;SDS011;6016;41.928;25.556;2023-04-03T07:41:49;8.68;;;4.45;;
11911;SDS011;6016;41.928;25.556;2023-04-03T07:44:16;10.43;;;4.40;;
11911;SDS011;6016;41.928;25.556;2023-04-03T07:46:43;10.70;;;4.68;;
11911;SDS011;6016;41.928;25.556;2023-04-03T07:49:10;12.23;;;5.50;;
11911;SDS011;6016;41.928;25.556;2023-04-03T07:51:38;12.38;;;5.80;;
11911;SDS011;6016;41.928;25.556;2023-04-03T07:54:05;14.40;;;6.07;;
11911;SDS011;6016;41.928;25.556;2023-04-03T07:56:32;13.23;;;6.40;;
11911;SDS011;6016;41.928;25.556;2023-04-03T07:58:59;66.88;;;30.65;;
11911;SDS011;6016;41.928;25.556;2023-04-03T08:01:26;20.42;;;10.25;;
11911;SDS011;6016;41.928;25.556;2023-04-03T08:03:53;105.47;;;41.92;;
11911;SDS011;6016;41.928;25.556;2023-04-03T08:06:19;23.67;;;11.20;;
11911;SDS011;6016;41.928;25.556;2023-04-03T08:08:48;49.38;;;24.67;;
11911;SDS011;6016;41.928;25.556;2023-04-03T08:11:15;15.05;;;7.25;;
11911;SDS011;6016;41.928;25.556;2023-04-03T08:13:41;11.75;;;7.28;;
11911;SDS011;6016;41.928;25.556;2023-04-03T08:16:09;16.38;;;7.25;;
11911;SDS011;6016;41.928;25.556;2023-04-03T08:18:37;14.60;;;7.03;;
11911;SDS011;6016;41.928;25.556;2023-04-03T08:21:05;13.88;;;6.60;;
11911;SDS011;6016;41.928;25.556;2023-04-03T08:23:33;15.02;;;7.72;;
11911;SDS011;6016;41.928;25.556;2023-04-03T08:26:06;11.43;;;6.13;;
11911;SDS011;6016;41.928;25.556;2023-04-03T08:28:33;12.75;;;5.50;;
11911;SDS011;6016;41.928;25.556;2023-04-03T08:31:02;12.20;;;4.95;;
11911;SDS011;6016;41.928;25.556;2023-04-03T08:33:32;10.27;;;5.10;;
11911;SDS011;6016;41.928;25.556;2023-04-03T08:36:01;11.68;;;4.88;;
11911;SDS011;6016;41.928;25.556;2023-04-03T08:38:29;12.65;;;5.20;;
11911;SDS011;6016;41.928;25.556;2023-04-03T08:41:10;12.63;;;6.05;;
11911;SDS011;6016;41.928;25.556;2023-04-03T08:43:45;17.88;;;6.90;;
11911;SDS011;6016;41.928;25.556;2023-04-03T08:46:22;20.33;;;8.32;;
11911;SDS011;6016;41.928;25.556;2023-04-03T08:48:57;19.08;;;7.22;;
11911;SDS011;6016;41.928;25.556;2023-04-03T08:51:25;16.75;;;6.60;;
11911;SDS011;6016;41.928;25.556;2023-04-03T08:53:55;15.93;;;7.15;;
11911;SDS011;6016;41.928;25.556;2023-04-03T08:56:28;16.50;;;6.97;;
11911;SDS011;6016;41.928;25.556;2023-04-03T08:58:56;13.13;;;6.32;;
11911;SDS011;6016;41.928;25.556;2023-04-03T09:01:27;12.90;;;5.72;;
11911;SDS011;6016;41.928;25.556;2023-04-03T09:04:00;12.88;;;4.50;;
11911;SDS011;6016;41.928;25.556;2023-04-03T09:06:28;11.60;;;5.22;;
11911;SDS011;6016;41.928;25.556;2023-04-03T09:09:01;13.68;;;5.32;;
11911;SDS011;6016;41.928;25.556;2023-04-03T09:11:43;10.95;;;5.25;;
11911;SDS011;6016;41.928;25.556;2023-04-03T09:14:18;13.32;;;5.47;;
11911;SDS011;6016;41.928;25.556;2023-04-03T09:16:53;7.45;;;4.15;;
11911;SDS011;6016;41.928;25.556;2023-04-03T09:19:25;8.52;;;4.57;;
11911;SDS011;6016;41.928;25.556;2023-04-03T09:22:02;8.82;;;4.53;;
11911;SDS011;6016;41.928;25.556;2023-04-03T09:24:37;10.40;;;4.65;;
11911;SDS011;6016;41.928;25.556;2023-04-03T09:27:06;10.45;;;4.70;;
11911;SDS011;6016;41.928;25.556;2023-04-03T09:29:36;13.13;;;6.25;;
11911;SDS011;6016;41.928;25.556;2023-04-03T09:32:15;13.65;;;6.85;;
11911;SDS011;6016;41.928;25.556;2023-04-03T09:34:47;16.23;;;8.05;;
11911;SDS011;6016;41.928;25.556;2023-04-03T09:40:02;14.07;;;5.72;;
11911;SDS011;6016;41.928;25.556;2023-04-03T09:42:32;10.93;;;5.45;;
11911;SDS011;6016;41.928;25.556;2023-04-03T09:44:59;11.40;;;5.75;;
11911;SDS011;6016;41.928;25.556;2023-04-03T09:47:28;14.10;;;6.75;;
11911;SDS011;6016;41.928;25.556;2023-04-03T09:50:15;9.80;;;5.72;;
11911;SDS011;6016;41.928;25.556;2023-04-03T09:52:47;14.65;;;6.55;;
11911;SDS011;6016;41.928;25.556;2023-04-03T09:55:17;10.60;;;5.25;;
11911;SDS011;6016;41.928;25.556;2023-04-03T09:57:48;12.75;;;6.70;;
11911;SDS011;6016;41.928;25.556;2023-04-03T10:00:20;12.60;;;7.25;;
11911;SDS011;6016;41.928;25.556;2023-04-03T10:02:49;12.57;;;6.53;;
11911;SDS011;6016;41.928;25.556;2023-04-03T10:05:25;13.68;;;6.45;;
11911;SDS011;6016;41.928;25.556;2023-04-03T10:08:06;10.20;;;5.63;;
11911;SDS011;6016;41.928;25.556;2023-04-03T10:10:34;10.52;;;5.93;;
11911;SDS011;6016;41.928;25.556;2023-04-03T10:13:06;9.02;;;5.72;;
11911;SDS011;6016;41.928;25.556;2023-04-03T10:15:38;11.68;;;6.15;;
11911;SDS011;6016;41.928;25.556;2023-04-03T10:18:14;14.48;;;7.55;;
11911;SDS011;6016;41.928;25.556;2023-04-03T10:20:54;15.80;;;6.40;;
11911;SDS011;6016;41.928;25.556;2023-04-03T10:23:29;9.32;;;5.47;;
11911;SDS011;6016;41.928;25.556;2023-04-03T10:26:02;12.38;;;5.70;;
11911;SDS011;6016;41.928;25.556;2023-04-03T10:28:41;13.52;;;5.93;;
11911;SDS011;6016;41.928;25.556;2023-04-03T10:31:13;9.35;;;5.53;;
11911;SDS011;6016;41.928;25.556;2023-04-03T10:33:48;10.48;;;4.63;;
11911;SDS011;6016;41.928;25.556;2023-04-03T10:36:27;12.30;;;5.00;;
11911;SDS011;6016;41.928;25.556;2023-04-03T10:39:05;15.60;;;5.72;;
11911;SDS011;6016;41.928;25.556;2023-04-03T10:41:45;10.65;;;5.28;;
11911;SDS011;6016;41.928;25.556;2023-04-03T10:44:27;13.07;;;6.32;;
11911;SDS011;6016;41.928;25.556;2023-04-03T10:47:03;16.23;;;7.75;;
11911;SDS011;6016;41.928;25.556;2023-04-03T10:49:41;10.57;;;4.70;;
11911;SDS011;6016;41.928;25.556;2023-04-03T10:52:17;11.68;;;4.95;;
11911;SDS011;6016;41.928;25.556;2023-04-03T10:54:49;8.77;;;4.82;;
11911;SDS011;6016;41.928;25.556;2023-04-03T10:57:25;12.45;;;5.53;;
11911;SDS011;6016;41.928;25.556;2023-04-03T10:59:56;13.32;;;4.65;;
11911;SDS011;6016;41.928;25.556;2023-04-03T11:02:26;8.07;;;4.70;;
11911;SDS011;6016;41.928;25.556;2023-04-03T11:04:57;10.52;;;4.63;;
11911;SDS011;6016;41.928;25.556;2023-04-03T11:07:28;10.25;;;4.75;;
11911;SDS011;6016;41.928;25.556;2023-04-03T11:10:00;10.50;;;4.90;;
11911;SDS011;6016;41.928;25.556;2023-04-03T11:12:34;8.40;;;4.53;;
11911;SDS011;6016;41.928;25.556;2023-04-03T11:15:11;10.38;;;4.43;;
11911;SDS011;6016;41.928;25.556;2023-04-03T11:17:41;9.27;;;4.53;;
11911;SDS011;6016;41.928;25.556;2023-04-03T11:20:14;11.97;;;5.33;;
11911;SDS011;6016;41.928;25.556;2023-04-03T11:22:45;8.48;;;5.10;;
11911;SDS011;6016;41.928;25.556;2023-04-03T11:25:18;16.25;;;5.72;;
11911;SDS011;6016;41.928;25.556;2023-04-03T11:27:49;10.25;;;5.22;;
11911;SDS011;6016;41.928;25.556;2023-04-03T11:30:23;10.38;;;5.60;;
11911;SDS011;6016;41.928;25.556;2023-04-03T11:35:58;11.82;;;5.70;;
11911;SDS011;6016;41.928;25.556;2023-04-03T11:38:31;15.27;;;5.45;;
11911;SDS011;6016;41.928;25.556;2023-04-03T11:41:01;10.02;;;5.00;;
11911;SDS011;6016;41.928;25.556;2023-04-03T11:43:29;12.63;;;5.00;;
11911;SDS011;6016;41.928;25.556;2023-04-03T11:45:59;10.82;;;5.60;;
11911;SDS011;6016;41.928;25.556;2023-04-03T11:48:49;12.73;;;5.47;;
11911;SDS011;6016;41.928;25.556;2023-04-03T11:54:44;13.70;;;6.18;;
11911;SDS011;6016;41.928;25.556;2023-04-03T11:57:22;11.82;;;6.35;;
11911;SDS011;6016;41.928;25.556;2023-04-03T12:09:24;19.15;;;9.35;;
11911;SDS011;6016;41.928;25.556;2023-04-03T12:11:54;22.00;;;8.88;;
11911;SDS011;6016;41.928;25.556;2023-04-03T12:14:22;18.48;;;8.85;;
11911;SDS011;6016;41.928;25.556;2023-04-03T12:16:51;18.13;;;8.93;;
11911;SDS011;6016;41.928;25.556;2023-04-03T12:19:32;20.02;;;9.80;;
11911;SDS011;6016;41.928;25.556;2023-04-03T12:22:11;16.88;;;8.02;;
11911;SDS011;6016;41.928;25.556;2023-04-03T12:24:41;16.30;;;8.40;;
11911;SDS011;6016;41.928;25.556;2023-04-03T12:27:15;16.90;;;7.97;;
11911;SDS011;6016;41.928;25.556;2023-04-03T12:29:56;11.52;;;6.45;;
11911;SDS011;6016;41.928;25.556;2023-04-03T12:32:38;14.32;;;5.75;;
11911;SDS011;6016;41.928;25.556;2023-04-03T12:35:18;13.77;;;6.20;;
11911;SDS011;6016;41.928;25.556;2023-04-03T12:40:51;12.23;;;5.85;;
11911;SDS011;6016;41.928;25.556;2023-04-03T12:43:36;14.50;;;6.05;;
11911;SDS011;6016;41.928;25.556;2023-04-03T12:46:11;11.45;;;5.45;;
11911;SDS011;6016;41.928;25.556;2023-04-03T12:48:47;382.55;;;187.27;;
11911;SDS011;6016;41.928;25.556;2023-04-03T12:51:17;445.58;;;241.35;;
11911;SDS011;6016;41.928;25.556;2023-04-03T12:53:46;51.95;;;21.17;;
11911;SDS011;6016;41.928;25.556;2023-04-03T12:56:21;54.15;;;29.50;;
11911;SDS011;6016;41.928;25.556;2023-04-03T12:58:50;134.50;;;58.47;;
11911;SDS011;6016;41.928;25.556;2023-04-03T13:01:20;189.20;;;88.53;;
11911;SDS011;6016;41.928;25.556;2023-04-03T13:03:49;89.70;;;40.10;;
11911;SDS011;6016;41.928;25.556;2023-04-03T13:06:18;75.50;;;35.80;;
11911;SDS011;6016;41.928;25.556;2023-04-03T13:08:51;150.05;;;70.75;;
11911;SDS011;6016;41.928;25.556;2023-04-03T13:11:20;155.32;;;81.43;;
11911;SDS011;6016;41.928;25.556;2023-04-03T13:13:55;109.78;;;52.22;;
11911;SDS011;6016;41.928;25.556;2023-04-03T13:16:25;76.75;;;34.33;;
11911;SDS011;6016;41.928;25.556;2023-04-03T13:18:53;178.82;;;91.20;;
11911;SDS011;6016;41.928;25.556;2023-04-03T13:21:21;247.70;;;115.57;;
11911;SDS011;6016;41.928;25.556;2023-04-03T13:23:51;133.25;;;59.03;;
11911;SDS011;6016;41.928;25.556;2023-04-03T13:26:22;116.35;;;48.63;;
11911;SDS011;6016;41.928;25.556;2023-04-03T13:28:52;38.75;;;16.88;;
11911;SDS011;6016;41.928;25.556;2023-04-03T13:31:22;23.20;;;11.00;;
11911;SDS011;6016;41.928;25.556;2023-04-03T13:33:55;86.47;;;40.60;;
11911;SDS011;6016;41.928;25.556;2023-04-03T13:36:26;54.88;;;28.23;;
11911;SDS011;6016;41.928;25.556;2023-04-03T13:38:59;107.88;;;59.35;;
11911;SDS011;6016;41.928;25.556;2023-04-03T13:41:30;51.22;;;27.73;;
11911;SDS011;6016;41.928;25.556;2023-04-03T13:46:54;79.70;;;43.08;;
11911;SDS011;6016;41.928;25.556;2023-04-03T13:49:27;25.20;;;12.10;;
11911;SDS011;6016;41.928;25.556;2023-04-03T13:51:57;95.13;;;53.33;;
11911;SDS011;6016;41.928;25.556;2023-04-03T13:54:28;54.03;;;26.10;;
11911;SDS011;6016;41.928;25.556;2023-04-03T13:56:59;26.50;;;14.82;;
11911;SDS011;6016;41.928;25.556;2023-04-03T13:59:27;32.25;;;13.98;;
11911;SDS011;6016;41.928;25.556;2023-04-03T14:02:06;27.85;;;13.35;;
11911;SDS011;6016;41.928;25.556;2023-04-03T14:07:25;43.17;;;17.10;;
11911;SDS011;6016;41.928;25.556;2023-04-03T14:09:52;37.90;;;18.33;;
11911;SDS011;6016;41.928;25.556;2023-04-03T14:12:24;31.20;;;15.15;;
11911;SDS011;6016;41.928;25.556;2023-04-03T14:14:53;29.15;;;13.57;;
11911;SDS011;6016;41.928;25.556;2023-04-03T14:17:21;70.43;;;40.08;;
11911;SDS011;6016;41.928;25.556;2023-04-03T14:19:51;53.63;;;25.77;;
11911;SDS011;6016;41.928;25.556;2023-04-03T14:22:20;92.95;;;35.08;;
11911;SDS011;6016;41.928;25.556;2023-04-03T14:24:48;57.33;;;23.30;;
11911;SDS011;6016;41.928;25.556;2023-04-03T14:27:17;33.08;;;15.40;;
11911;SDS011;6016;41.928;25.556;2023-04-03T14:29:48;33.00;;;16.10;;
11911;SDS011;6016;41.928;25.556;2023-04-03T14:32:17;31.13;;;15.68;;
11911;SDS011;6016;41.928;25.556;2023-04-03T14:34:45;34.75;;;18.42;;
11911;SDS011;6016;41.928;25.556;2023-04-03T14:37:14;91.40;;;52.20;;
11911;SDS011;6016;41.928;25.556;2023-04-03T14:39:42;49.47;;;28.40;;
11911;SDS011;6016;41.928;25.556;2023-04-03T14:42:11;22.30;;;11.13;;
11911;SDS011;6016;41.928;25.556;2023-04-03T14:44:40;24.10;;;10.32;;
11911;SDS011;6016;41.928;25.556;2023-04-03T14:47:10;20.83;;;9.68;;
11911;SDS011;6016;41.928;25.556;2023-04-03T14:49:38;21.75;;;11.48;;
11911;SDS011;6016;41.928;25.556;2023-04-03T14:52:06;24.15;;;11.48;;
11911;SDS011;6016;41.928;25.556;2023-04-03T14:54:33;23.30;;;10.85;;
11911;SDS011;6016;41.928;25.556;2023-04-03T14:57:00;23.73;;;10.20;;
11911;SDS011;6016;41.928;25.556;2023-04-03T14:59:28;22.15;;;10.85;;
11911;SDS011;6016;41.928;25.556;2023-04-03T15:01:56;31.30;;;13.88;;
11911;SDS011;6016;41.928;25.556;2023-04-03T15:04:24;24.63;;;10.90;;
11911;SDS011;6016;41.928;25.556;2023-04-03T15:06:53;22.95;;;10.20;;
11911;SDS011;6016;41.928;25.556;2023-04-03T15:09:20;24.35;;;10.90;;
11911;SDS011;6016;41.928;25.556;2023-04-03T15:11:48;26.33;;;13.10;;
11911;SDS011;6016;41.928;25.556;2023-04-03T15:14:15;31.35;;;13.98;;
11911;SDS011;6016;41.928;25.556;2023-04-03T15:16:42;40.05;;;15.25;;
11911;SDS011;6016;41.928;25.556;2023-04-03T15:19:09;36.15;;;15.82;;
11911;SDS011;6016;41.928;25.556;2023-04-03T15:21:38;27.40;;;13.25;;